Time;durP1;ratioP1;P1;durP2;ratioP2;P2;SDS_P1;SDS_P2;PMS_P1;PMS_P2;Temp;Humidity;BMP_temperature;BMP_pressure;BME280_temperature;BME280_humidity;BME280_pressure;Samples;Min_cycle;Max_cycle;Signal;HPM_P1;HPM_P2
2021/09/21 00:00:33;;;;;;;2.13;1.80;;;;;;;;;;5014657;28;20060;-72
2021/09/21 00:02:59;;;;;;;2.60;1.80;;;;;;;;;;5014462;28;20389;-72
2021/09/21 00:05:25;;;;;;;3.55;2.03;;;;;;;;;;5014643;28;20065;-72
2021/09/21 00:07:51;;;;;;;3.58;1.80;;;;;;;;;;5014666;28;20070;-72
2021/09/21 00:10:17;;;;;;;3.15;1.95;;;;;;;;;;4996700;28;20104;-72
2021/09/21 00:12:44;;;;;;;3.30;1.83;;;;;;;;;;4996686;28;20045;-72
2021/09/21 00:15:12;;;;;;;3.42;1.90;;;;;;;;;;5013679;28;20374;-72
2021/09/21 00:17:38;;;;;;;3.38;1.88;;;;;;;;;;5014663;28;20038;-72
2021/09/21 00:20:05;;;;;;;2.05;1.70;;;;;;;;;;5014455;28;20116;-72
2021/09/21 00:22:31;;;;;;;5.32;2.28;;;;;;;;;;5014957;28;20030;-72
2021/09/21 00:24:57;;;;;;;2.13;1.52;;;;;;;;;;5014107;28;20062;-72
2021/09/21 00:27:23;;;;;;;2.50;2.00;;;;;;;;;;5014227;28;20037;-72
2021/09/21 00:29:49;;;;;;;2.58;1.67;;;;;;;;;;5014565;28;20034;-73
2021/09/21 00:32:19;;;;;;;2.45;1.67;;;;;;;;;;5014080;28;20038;-72
2021/09/21 00:34:45;;;;;;;7.63;1.85;;;;;;;;;;5014003;28;20040;-71
2021/09/21 00:37:13;;;;;;;4.30;1.67;;;;;;;;;;5014104;28;20435;-71
2021/09/21 00:39:40;;;;;;;3.65;1.60;;;;;;;;;;5014137;28;20034;-72
2021/09/21 00:42:07;;;;;;;2.90;1.80;;;;;;;;;;5014169;28;20033;-72
2021/09/21 00:44:34;;;;;;;3.00;1.63;;;;;;;;;;5013759;28;20038;-72
2021/09/21 00:47:01;;;;;;;1.98;1.70;;;;;;;;;;5014017;28;20033;-72
2021/09/21 00:49:27;;;;;;;2.75;1.50;;;;;;;;;;5014066;28;20034;-72
2021/09/21 00:51:54;;;;;;;3.08;1.92;;;;;;;;;;5014017;28;20116;-72
2021/09/21 00:54:20;;;;;;;1.67;1.50;;;;;;;;;;5013647;28;20088;-72
2021/09/21 00:56:46;;;;;;;5.05;2.03;;;;;;;;;;5013745;28;20037;-72
2021/09/21 00:59:12;;;;;;;2.72;1.98;;;;;;;;;;5013012;28;20368;-72
2021/09/21 01:01:38;;;;;;;3.25;1.90;;;;;;;;;;5013782;28;20040;-72
2021/09/21 01:04:05;;;;;;;2.60;1.85;;;;;;;;;;5013721;28;20069;-73
2021/09/21 01:06:32;;;;;;;2.47;1.70;;;;;;;;;;5013243;28;20077;-72
2021/09/21 01:08:58;;;;;;;2.50;1.65;;;;;;;;;;5013685;28;20034;-73
2021/09/21 01:11:24;;;;;;;2.17;1.98;;;;;;;;;;5014297;28;20077;-74
2021/09/21 01:13:50;;;;;;;2.50;1.52;;;;;;;;;;5013104;28;20080;-73
2021/09/21 01:16:17;;;;;;;1.98;1.52;;;;;;;;;;5013881;28;20486;-72
2021/09/21 01:18:43;;;;;;;3.42;1.77;;;;;;;;;;5013327;28;20034;-72
2021/09/21 01:21:10;;;;;;;6.30;1.77;;;;;;;;;;5013158;28;20030;-72
2021/09/21 01:23:55;;;;;;;2.80;1.92;;;;;;;;;;5013562;28;20062;-72
2021/09/21 01:26:23;;;;;;;1.80;1.65;;;;;;;;;;5013635;28;20431;-72
2021/09/21 01:28:49;;;;;;;2.88;1.95;;;;;;;;;;5013194;28;20030;-72
2021/09/21 01:31:16;;;;;;;2.13;1.73;;;;;;;;;;5013212;28;20577;-72
2021/09/21 01:33:44;;;;;;;3.38;1.98;;;;;;;;;;5013495;28;20052;-72
2021/09/21 01:36:10;;;;;;;5.25;2.17;;;;;;;;;;5013181;28;20030;-71
2021/09/21 01:38:36;;;;;;;2.47;1.70;;;;;;;;;;5013172;28;20095;-72
2021/09/21 01:41:02;;;;;;;2.40;1.52;;;;;;;;;;5013409;28;20109;-73
2021/09/21 01:43:28;;;;;;;2.53;1.75;;;;;;;;;;5013041;28;20479;-72
2021/09/21 01:45:54;;;;;;;3.20;2.00;;;;;;;;;;5013106;28;20487;-72
2021/09/21 01:48:20;;;;;;;2.45;1.67;;;;;;;;;;4995606;28;20034;-72
2021/09/21 01:50:55;;;;;;;2.00;1.40;;;;;;;;;;5012806;28;20053;-72
2021/09/21 02:01:10;;;;;;;3.15;1.88;;;;;;;;;;5013410;28;20030;-72
2021/09/21 02:03:36;;;;;;;2.85;1.88;;;;;;;;;;5012943;28;20478;-73
2021/09/21 02:06:04;;;;;;;2.70;1.85;;;;;;;;;;5012575;28;20042;-72
2021/09/21 02:08:30;;;;;;;2.42;1.77;;;;;;;;;;5014575;28;20040;-73
2021/09/21 02:10:56;;;;;;;4.07;1.90;;;;;;;;;;5016978;28;20053;-72
2021/09/21 02:13:22;;;;;;;2.13;1.63;;;;;;;;;;4999247;28;20041;-72
2021/09/21 02:15:48;;;;;;;3.08;1.85;;;;;;;;;;5016482;28;20042;-72
2021/09/21 02:18:14;;;;;;;7.25;1.98;;;;;;;;;;5016535;28;20076;-72
2021/09/21 02:20:41;;;;;;;4.35;1.80;;;;;;;;;;5016877;28;20509;-72
2021/09/21 02:23:07;;;;;;;4.72;1.88;;;;;;;;;;5016577;28;20030;-73
2021/09/21 02:25:33;;;;;;;3.63;1.90;;;;;;;;;;5016518;28;20088;-72
2021/09/21 02:27:59;;;;;;;3.13;1.80;;;;;;;;;;5016556;28;20036;-72
2021/09/21 02:30:25;;;;;;;2.15;1.85;;;;;;;;;;5016103;28;20116;-72
2021/09/21 02:32:51;;;;;;;2.65;1.60;;;;;;;;;;5016418;28;20030;-72
2021/09/21 02:35:18;;;;;;;2.97;1.80;;;;;;;;;;4998633;28;20050;-73
2021/09/21 02:37:44;;;;;;;3.17;1.67;;;;;;;;;;5016112;28;20487;-73
2021/09/21 02:40:11;;;;;;;3.13;1.50;;;;;;;;;;5016395;28;20030;-72
2021/09/21 02:42:37;;;;;;;2.60;1.80;;;;;;;;;;5016314;28;20025;-72
2021/09/21 02:45:04;;;;;;;2.30;1.75;;;;;;;;;;4998119;28;20513;-71
2021/09/21 02:47:30;;;;;;;3.80;1.70;;;;;;;;;;5015938;28;20034;-72
2021/09/21 02:49:56;;;;;;;2.72;1.75;;;;;;;;;;5015836;28;20449;-72
2021/09/21 02:52:22;;;;;;;6.90;2.10;;;;;;;;;;5015579;28;20451;-72
2021/09/21 02:54:48;;;;;;;3.30;1.60;;;;;;;;;;5015939;28;20104;-73
2021/09/21 02:57:14;;;;;;;1.80;1.60;;;;;;;;;;5015847;28;20037;-72
2021/09/21 02:59:40;;;;;;;1.92;1.70;;;;;;;;;;5015926;28;20030;-72
2021/09/21 03:02:07;;;;;;;4.45;1.80;;;;;;;;;;5016194;28;20062;-72
2021/09/21 03:04:40;;;;;;;2.42;1.75;;;;;;;;;;5015640;28;20045;-72
2021/09/21 03:07:09;;;;;;;3.53;2.15;;;;;;;;;;5016065;28;20130;-72
2021/09/21 03:17:26;;;;;;;2.15;1.95;;;;;;;;;;4996048;28;20454;-72
2021/09/21 03:19:52;;;;;;;2.40;1.92;;;;;;;;;;4995821;28;20038;-72
2021/09/21 03:22:19;;;;;;;3.90;1.67;;;;;;;;;;4995633;28;20042;-72
2021/09/21 03:24:45;;;;;;;5.47;2.72;;;;;;;;;;4995656;28;20161;-72
2021/09/21 03:27:11;;;;;;;3.55;1.67;;;;;;;;;;4995420;28;20038;-72
2021/09/21 03:29:37;;;;;;;3.00;2.47;;;;;;;;;;4995671;28;20041;-72
2021/09/21 03:32:03;;;;;;;4.30;1.90;;;;;;;;;;4995736;28;20038;-72
2021/09/21 03:34:32;;;;;;;2.97;2.08;;;;;;;;;;4995682;28;20105;-72
2021/09/21 03:36:58;;;;;;;3.33;2.10;;;;;;;;;;4995556;28;20045;-72
2021/09/21 03:39:24;;;;;;;4.78;2.15;;;;;;;;;;4995438;28;20042;-72
2021/09/21 03:41:50;;;;;;;3.53;2.05;;;;;;;;;;4995674;28;20116;-72
2021/09/21 03:44:17;;;;;;;4.60;2.17;;;;;;;;;;4995497;28;20042;-72
2021/09/21 03:46:43;;;;;;;5.70;2.58;;;;;;;;;;4995267;28;20050;-72
2021/09/21 03:49:09;;;;;;;3.42;2.22;;;;;;;;;;4994360;28;20443;-71
2021/09/21 03:51:35;;;;;;;3.42;2.13;;;;;;;;;;4995078;28;20065;-72
2021/09/21 03:54:01;;;;;;;3.60;2.10;;;;;;;;;;4995397;28;20443;-72
2021/09/21 03:56:27;;;;;;;5.22;2.00;;;;;;;;;;4995032;28;20043;-72
2021/09/21 03:58:53;;;;;;;4.15;2.30;;;;;;;;;;4995343;28;20035;-72
2021/09/21 04:01:19;;;;;;;3.50;2.20;;;;;;;;;;4995059;28;20066;-72
2021/09/21 04:03:45;;;;;;;2.38;1.90;;;;;;;;;;4995388;28;20399;-72
2021/09/21 04:06:11;;;;;;;9.85;2.08;;;;;;;;;;4995265;28;20054;-72
2021/09/21 04:08:37;;;;;;;4.70;1.80;;;;;;;;;;4994959;28;20035;-73
2021/09/21 04:11:03;;;;;;;3.47;1.80;;;;;;;;;;5012886;28;20054;-73
2021/09/21 04:13:29;;;;;;;5.45;1.98;;;;;;;;;;5014606;28;20386;-72
2021/09/21 04:15:55;;;;;;;2.90;1.88;;;;;;;;;;5014450;28;20042;-72
2021/09/21 04:18:21;;;;;;;3.65;1.80;;;;;;;;;;5014683;28;20394;-72
2021/09/21 04:20:47;;;;;;;4.60;2.17;;;;;;;;;;5014427;28;20041;-72
2021/09/21 04:23:13;;;;;;;5.68;1.88;;;;;;;;;;5014461;28;20038;-72
2021/09/21 04:25:39;;;;;;;2.97;2.05;;;;;;;;;;5014453;28;20044;-72
2021/09/21 04:28:06;;;;;;;2.10;1.90;;;;;;;;;;5014298;28;20133;-72
2021/09/21 04:30:32;;;;;;;3.00;1.92;;;;;;;;;;5014003;28;20054;-72
2021/09/21 04:32:58;;;;;;;2.78;2.05;;;;;;;;;;5014499;28;20029;-73
2021/09/21 04:35:24;;;;;;;3.05;2.30;;;;;;;;;;5014421;28;20061;-73
2021/09/21 04:37:50;;;;;;;2.53;2.00;;;;;;;;;;5013849;28;20030;-73
2021/09/21 04:40:16;;;;;;;3.15;2.10;;;;;;;;;;5014179;28;20042;-72
2021/09/21 04:42:42;;;;;;;6.75;1.95;;;;;;;;;;5014172;28;20080;-73
2021/09/21 04:45:09;;;;;;;3.58;2.03;;;;;;;;;;5013987;28;20045;-73
2021/09/21 04:47:35;;;;;;;5.03;2.15;;;17.90;58.30;;;;;;5014147;28;20092;-73
2021/09/21 04:50:01;;;;;;;3.03;2.05;;;;;;;;;;5014096;28;20394;-73
2021/09/21 04:52:27;;;;;;;4.63;2.50;;;;;;;;;;5013720;28;20034;-73
2021/09/21 04:54:53;;;;;;;3.55;2.30;;;;;;;;;;5013861;28;20390;-72
2021/09/21 04:57:19;;;;;;;5.10;2.25;;;;;;;;;;5014294;28;20401;-72
2021/09/21 04:59:45;;;;;;;3.53;2.13;;;;;;;;;;5013848;28;20041;-74
2021/09/21 05:02:11;;;;;;;3.78;2.60;;;;;;;;;;5014023;28;20129;-74
2021/09/21 05:04:37;;;;;;;3.65;2.30;;;;;;;;;;5013858;28;20057;-72
2021/09/21 05:07:03;;;;;;;3.05;2.35;;;;;;;;;;5013679;28;20042;-73
2021/09/21 05:09:29;;;;;;;3.85;2.30;;;;;;;;;;5013529;28;20057;-72
2021/09/21 05:11:56;;;;;;;3.65;2.13;;;;;;;;;;5013643;28;20112;-72
2021/09/21 05:14:22;;;;;;;3.13;1.75;;;;;;;;;;5013641;28;20062;-73
2021/09/21 05:16:48;;;;;;;3.05;2.40;;;;;;;;;;5013424;28;20041;-72
2021/09/21 05:19:14;;;;;;;2.97;2.13;;;;;;;;;;5013710;28;20038;-72
2021/09/21 05:21:41;;;;;;;6.15;2.40;;;;;;;;;;5013521;28;20089;-72
2021/09/21 05:24:07;;;;;;;5.05;2.35;;;;;;;;;;5013451;28;20034;-72
2021/09/21 05:26:33;;;;;;;2.60;1.90;;;;;;;;;;5013398;28;20081;-72
2021/09/21 05:28:59;;;;;;;6.53;2.03;;;;;;;;;;5013283;28;20026;-73
2021/09/21 05:31:25;;;;;;;5.03;2.20;;;;;;;;;;5013534;28;20121;-73
2021/09/21 05:33:51;;;;;;;4.15;2.53;;;;;;;;;;5013299;28;20394;-73
2021/09/21 05:36:17;;;;;;;3.63;2.50;;;;;;;;;;5013205;28;20537;-72
2021/09/21 05:38:43;;;;;;;2.80;2.20;;;;;;;;;;5013207;28;20038;-74
2021/09/21 05:41:09;;;;;;;5.00;2.63;;;;;;;;;;5013551;28;20034;-73
2021/09/21 05:43:35;;;;;;;4.05;2.33;;;;;;;;;;5015202;28;20103;-73
2021/09/21 05:46:02;;;;;;;5.32;2.47;;;;;;;;;;5016853;28;20069;-74
2021/09/21 05:48:28;;;;;;;4.97;2.58;;;;;;;;;;5017850;28;20030;-73
2021/09/21 05:50:54;;;;;;;4.95;2.40;;;;;;;;;;5017362;28;20122;-73
2021/09/21 05:53:20;;;;;;;5.35;2.75;;;;;;;;;;5017349;28;20509;-73
2021/09/21 05:55:46;;;;;;;7.95;2.50;;;;;;;;;;5017161;28;20077;-73
2021/09/21 05:58:12;;;;;;;5.70;2.63;;;;;;;;;;5016880;28;20049;-73
2021/09/21 06:00:38;;;;;;;4.75;2.47;;;;;;;;;;5016938;28;20339;-74
2021/09/21 06:03:04;;;;;;;3.17;2.00;;;;;;;;;;5016658;28;20541;-72
2021/09/21 06:05:30;;;;;;;6.47;2.60;;;;;;;;;;5016889;28;20077;-73
2021/09/21 06:07:57;;;;;;;4.75;2.17;;;;;;;;;;5016641;28;20089;-72
2021/09/21 06:10:24;;;;;;;3.22;2.20;;;;;;;;;;5016504;28;20133;-72
2021/09/21 06:12:50;;;;;;;3.55;2.15;;;;;;;;;;5016544;28;20072;-73
2021/09/21 06:15:19;;;;;;;4.45;2.60;;;;;;;;;;5016233;28;20033;-74
2021/09/21 06:17:45;;;;;;;2.42;1.95;;;;;;;;;;5016825;28;20054;-73
2021/09/21 06:20:12;;;;;;;3.63;2.22;;;;;;;;;;5016519;28;20037;-73
2021/09/21 06:22:38;;;;;;;6.40;2.13;;;;;;;;;;5016445;28;20034;-72
2021/09/21 06:25:05;;;;;;;4.78;2.17;;;;;;;;;;5016213;28;20368;-73
2021/09/21 06:27:31;;;;;;;6.63;2.20;;;;;;;;;;5016248;28;20522;-72
2021/09/21 06:29:57;;;;;;;7.15;2.40;;;;;;;;;;5016620;28;20486;-72
2021/09/21 06:32:24;;;;;;;4.38;2.03;;;;;;;;;;5016646;28;20042;-75
2021/09/21 06:34:50;;;;;;;3.38;2.10;;;;;;;;;;5015841;28;20038;-75
2021/09/21 06:37:16;;;;;;;3.63;1.95;;;;;;;;;;5016575;28;20144;-76
2021/09/21 06:39:42;;;;;;;3.92;2.25;;;;;;;;;;5015929;28;20061;-73
2021/09/21 06:42:09;;;;;;;3.85;2.00;;;;;;;;;;5016135;28;20457;-74
2021/09/21 06:44:35;;;;;;;3.88;1.95;;;;;;;;;;5016343;28;20085;-73
2021/09/21 06:47:01;;;;;;;2.50;1.90;;;;;;;;;;5016107;28;20460;-72
2021/09/21 06:49:28;;;;;;;3.22;2.20;;;;;;;;;;5016026;28;20034;-74
2021/09/21 06:51:54;;;;;;;4.60;1.70;;;;;;;;;;5015710;28;20121;-72
2021/09/21 06:54:20;;;;;;;6.65;2.92;;;;;;;;;;5015280;28;20048;-73
2021/09/21 06:56:46;;;;;;;2.70;2.00;;;;;;;;;;5016009;28;20029;-73
2021/09/21 06:59:12;;;;;;;3.47;1.83;;;;;;;;;;5015420;28;20069;-72
2021/09/21 07:01:38;;;;;;;3.53;2.10;;;;;;;;;;5015885;28;20041;-72
2021/09/21 07:04:04;;;;;;;2.17;1.75;;;;;;;;;;5016118;28;20040;-78
2021/09/21 07:06:30;;;;;;;8.20;1.90;;;;;;;;;;5015640;28;20038;-74
2021/09/21 07:08:56;;;;;;;6.88;1.80;;;;;;;;;;5015665;28;20030;-71
2021/09/21 07:11:22;;;;;;;3.15;1.92;;;;;;;;;;5015731;28;20402;-72
2021/09/21 07:13:49;;;;;;;4.05;2.03;;;;;;;;;;5015371;28;20033;-72
2021/09/21 07:16:15;;;;;;;3.85;1.80;;;;;;;;;;5015682;28;20124;-73
2021/09/21 07:18:41;;;;;;;2.42;1.70;;;;;;;;;;5015609;28;20501;-74
2021/09/21 07:21:07;;;;;;;6.00;2.15;;;;;;;;;;5015389;28;20052;-73
2021/09/21 07:23:34;;;;;;;3.58;2.17;;;;;;;;;;5015623;28;20034;-73
2021/09/21 07:26:00;;;;;;;4.70;2.22;;;;;;;;;;5015594;28;20509;-74
2021/09/21 07:28:27;;;;;;;3.03;2.00;;;;;;;;;;5014873;28;20041;-74
2021/09/21 07:30:53;;;;;;;2.63;1.88;;;;;;;;;;5015140;28;20112;-74
2021/09/21 07:33:19;;;;;;;4.15;2.05;;;;;;;;;;5015482;28;20026;-73
2021/09/21 07:35:45;;;;;;;2.42;1.98;;;;;;;;;;5015362;28;20037;-74
2021/09/21 07:38:11;;;;;;;2.25;1.77;;;;;;;;;;5015605;28;20034;-73
2021/09/21 07:40:38;;;;;;;3.22;2.10;;;;;;;;;;5014632;28;20038;-73
2021/09/21 07:43:05;;;;;;;3.97;2.08;;;;;;;;;;5014777;28;20038;-73
2021/09/21 07:45:31;;;;;;;2.30;1.88;;;;;;;;;;5014842;28;20125;-73
2021/09/21 07:47:57;;;;;;;4.35;1.90;;;;;;;;;;5015354;28;20471;-73
2021/09/21 07:50:26;;;;;;;2.15;1.70;;;;;;;;;;5014941;28;20030;-75
2021/09/21 07:52:52;;;;;;;2.90;1.83;;;;;;;;;;5015108;28;20026;-74
2021/09/21 07:55:18;;;;;;;2.90;1.83;;;;;;;;;;5014688;28;20390;-75
2021/09/21 07:57:44;;;;;;;3.08;2.10;;;;;;;;;;5014488;28;20037;-77
2021/09/21 08:00:11;;;;;;;6.03;2.20;;;;;;;;;;5014783;28;20109;-77
2021/09/21 08:02:37;;;;;;;3.55;1.88;;;;;;;;;;4996504;28;20371;-74
2021/09/21 08:05:04;;;;;;;2.45;1.90;;;;;;;;;;5013951;28;20466;-74
2021/09/21 08:07:31;;;;;;;4.05;2.00;;;;;;;;;;5014403;28;20041;-73
2021/09/21 08:09:58;;;;;;;3.35;2.75;;;;;;;;;;5013664;28;20556;-77
2021/09/21 08:12:25;;;;;;;2.35;1.83;;;;;;;;;;5014170;28;20041;-77
2021/09/21 08:14:51;;;;;;;3.63;2.10;;;;;;;;;;5014983;28;20033;-78
2021/09/21 08:17:18;;;;;;;7.63;2.47;;;;;;;;;;5014530;28;20034;-77
2021/09/21 08:19:44;;;;;;;5.78;2.50;;;;;;;;;;5014922;28;20117;-77
2021/09/21 08:22:10;;;;;;;3.53;2.03;;;;;;;;;;5014195;28;20494;-77
2021/09/21 08:24:36;;;;;;;5.72;2.10;;;;;;;;;;5013901;28;20038;-77
2021/09/21 08:27:02;;;;;;;2.95;2.25;;;;;;;;;;5014245;28;20045;-77
2021/09/21 08:29:28;;;;;;;3.75;2.33;;;;;;;;;;5014545;28;20041;-77
2021/09/21 08:31:54;;;;;;;3.92;2.28;;;;;;;;;;5014287;28;20037;-77
2021/09/21 08:34:20;;;;;;;2.90;2.13;;;;;;;;;;5014005;28;20034;-77
2021/09/21 08:36:49;;;;;;;3.38;2.08;;;;;;;;;;4996566;28;20034;-76
2021/09/21 08:39:15;;;;;;;3.45;2.15;;;;;;;;;;5014253;28;20076;-75
2021/09/21 08:41:41;;;;;;;3.58;2.15;;;;;;;;;;5013960;28;20497;-76
2021/09/21 08:44:09;;;;;;;4.80;2.00;;;;;;;;;;5014031;28;20172;-75
2021/09/21 08:46:35;;;;;;;4.28;2.33;;;;;;;;;;5014097;28;20045;-73
2021/09/21 08:49:02;;;;;;;2.83;2.00;;;;;;;;;;5014332;28;20363;-74
2021/09/21 08:51:28;;;;;;;4.93;2.40;;;;;;;;;;5014118;28;20482;-74
2021/09/21 08:53:54;;;;;;;5.53;2.15;;;;;;;;;;5013759;28;20049;-75
2021/09/21 08:56:21;;;;;;;2.35;2.05;;;;;;;;;;5013852;28;20559;-72
2021/09/21 08:59:04;;;;;;;5.15;2.05;;;;;;;;;;5013779;28;20104;-72
2021/09/21 09:01:41;;;;;;;2.65;2.00;;;;;;;;;;5013951;28;20478;-72
2021/09/21 09:04:07;;;;;;;2.40;1.73;;;;;;;;;;4996619;28;20033;-72
2021/09/21 09:06:46;;;;;;;4.00;2.30;;;;;;;;;;5013623;28;20073;-73
2021/09/21 09:09:13;;;;;;;2.03;1.80;;;;;;;;;;5013720;28;20470;-73
2021/09/21 09:11:39;;;;;;;3.60;2.10;;;;;;;;;;5014135;28;20042;-72
2021/09/21 09:14:05;;;;;;;3.03;1.83;;;;;;;;;;5013445;28;20135;-73
2021/09/21 09:16:36;;;;;;;4.53;1.95;;;;;;;;;;5013651;28;20033;-74
2021/09/21 09:19:02;;;;;;;5.03;2.15;;;;;;;;;;5014160;28;20113;-74
2021/09/21 09:21:30;;;;;;;2.13;1.77;;;;;;;;;;5013685;28;20034;-74
2021/09/21 09:23:59;;;;;;;2.42;1.83;;;;;;;;;;5013567;28;20069;-74
2021/09/21 09:26:25;;;;;;;5.60;1.80;;;;;;;;;;5013365;28;20044;-75
2021/09/21 09:28:52;;;;;;;7.05;2.05;;;;;;;;;;5013681;28;20080;-73
2021/09/21 09:31:25;;;;;;;1.85;1.63;;;;;;;;;;4995936;28;20068;-75
2021/09/21 09:33:52;;;;;;;4.53;1.98;;;;;;;;;;5013593;28;20037;-74
2021/09/21 09:36:22;;;;;;;5.03;2.17;;;;;;;;;;5013521;28;20033;-74
2021/09/21 09:38:57;;;;;;;2.30;1.75;;;;;;;;;;4995795;28;20034;-75
2021/09/21 09:41:23;;;;;;;3.10;1.77;;;;;;;;;;5013322;28;20041;-74
2021/09/21 09:43:49;;;;;;;3.47;2.00;;;;;;;;;;5013310;28;20034;-75
2021/09/21 09:46:19;;;;;;;3.95;2.05;;;;;;;;;;5013284;28;20068;-75
2021/09/21 09:48:45;;;;;;;8.10;1.70;;;;;;;;;;5013276;28;20041;-75
2021/09/21 09:51:11;;;;;;;8.45;1.80;;;;;;;;;;5013435;28;20037;-75
2021/09/21 09:53:37;;;;;;;2.03;1.65;;;;;;;;;;5012313;28;20492;-75
2021/09/21 09:56:03;;;;;;;6.00;1.80;;;;;;;;;;5013322;28;20026;-78
2021/09/21 09:58:29;;;;;;;2.78;1.85;;;;;;;;;;5013139;28;20038;-77
2021/09/21 10:00:56;;;;;;;3.22;1.80;;;;;;;;;;5012694;28;20041;-77
2021/09/21 10:03:23;;;;;;;2.08;1.70;;;;;;;;;;5013255;28;20030;-79
2021/09/21 10:05:50;;;;;;;3.13;1.52;;;;;;;;;;5013057;28;20049;-79
2021/09/21 10:08:16;;;;;;;3.08;1.60;;;;;;;;;;5013003;28;20069;-79
2021/09/21 10:10:43;;;;;;;3.85;1.70;;;;;;;;;;5011967;28;20054;-76
2021/09/21 10:13:10;;;;;;;4.85;1.80;;;;;;;;;;5013008;28;20038;-76
2021/09/21 10:15:36;;;;;;;2.47;1.58;;;;;;;;;;5013062;28;20045;-76
2021/09/21 10:18:02;;;;;;;4.47;1.90;;;;;;;;;;5012971;28;20113;-75
2021/09/21 10:20:33;;;;;;;3.45;1.80;;;;;;;;;;5012983;28;20041;-76
2021/09/21 10:22:59;;;;;;;2.65;2.13;;;;;;;;;;5013099;28;20113;-76
2021/09/21 10:25:35;;;;;;;2.08;1.63;;;;;;;;;;5013102;28;20046;-76
2021/09/21 10:28:02;;;;;;;3.92;1.83;;;;;;;;;;5013029;28;20021;-77
2021/09/21 10:30:29;;;;;;;2.95;1.83;;;;;;;;;;5015878;28;20040;-76
2021/09/21 10:32:56;;;;;;;3.30;1.90;;;;;;;;;;5016861;28;20194;-77
2021/09/21 10:35:26;;;;;;;3.30;2.00;;;;;;;;;;5016891;28;20058;-77
2021/09/21 10:37:58;;;;;;;4.72;1.80;;;;;;;;;;5016574;28;20108;-75
2021/09/21 10:40:33;;;;;;;3.15;1.92;;;;;;;;;;5016544;28;20041;-76
2021/09/21 10:42:59;;;;;;;3.75;1.80;;;;;;;;;;5016228;28;20030;-76
2021/09/21 10:45:25;;;;;;;6.00;1.88;;;;;;;;;;5016054;28;20046;-76
2021/09/21 10:48:00;;;;;;;4.03;2.10;;;;;;;;;;5015931;28;20033;-75
2021/09/21 10:50:27;;;;;;;1.98;1.77;;;;;;;;;;5016319;28;20033;-75
2021/09/21 10:53:03;;;;;;;5.28;1.90;;;;;;;;;;5016320;28;20378;-75
2021/09/21 10:55:34;;;;;;;2.40;1.73;;;;;;;;;;5016080;28;20085;-74
2021/09/21 10:58:03;;;;;;;3.00;2.10;;;;;;;;;;5016187;28;20041;-76
2021/09/21 11:00:31;;;;;;;2.67;1.73;;;;;;;;;;5016268;28;20089;-75
2021/09/21 11:02:57;;;;;;;3.85;1.75;;;;;;;;;;5015814;28;20026;-76
2021/09/21 11:05:27;;;;;;;5.65;2.08;;;;;;;;;;5015592;28;20062;-76
2021/09/21 11:07:55;;;;;;;2.35;2.00;;;;;;;;;;4998361;28;20049;-75
2021/09/21 11:10:22;;;;;;;16.77;3.08;;;;;;;;;;5015681;28;20050;-74
2021/09/21 11:12:49;;;;;;;2.53;1.80;;;;;;;;;;5015695;28;20034;-76
2021/09/21 11:15:15;;;;;;;3.90;2.15;;;;;;;;;;5015417;28;20053;-75
2021/09/21 11:17:42;;;;;;;1.77;1.67;;;;;;;;;;5015856;28;20077;-74
2021/09/21 11:20:08;;;;;;;3.33;1.95;;;;;;;;;;5015313;28;20113;-75
2021/09/21 11:22:36;;;;;;;2.10;1.83;;;;;;;;;;5015395;28;20056;-74
2021/09/21 11:25:07;;;;;;;3.63;1.88;;;;;;;;;;5014208;28;20097;-74
2021/09/21 11:27:34;;;;;;;4.18;2.00;;;;;;;;;;5014210;28;20030;-75
2021/09/21 11:30:01;;;;;;;3.55;1.75;;;;;;;;;;5014153;28;20038;-75
2021/09/21 11:32:27;;;;;;;3.15;1.80;;;;;;;;;;5014072;28;20492;-75
2021/09/21 11:35:00;;;;;;;2.42;1.98;;;;;;;;;;5014106;28;20398;-76
2021/09/21 11:37:27;;;;;;;3.80;1.80;;;;;;;;;;5014320;28;20490;-76
2021/09/21 11:39:53;;;;;;;2.20;1.83;;;;;;;;;;4996700;28;20398;-76
2021/09/21 11:42:26;;;;;;;2.67;2.47;;;;;;;;;;5014271;28;20030;-76
2021/09/21 11:45:04;;;;;;;4.78;2.10;;;;;;;;;;5015034;28;20045;-72
2021/09/21 11:47:36;;;;;;;2.80;1.98;;;;;;;;;;5014839;28;20038;-75
2021/09/21 11:50:02;;;;;;;;;;;;;;;;;;5015232;28;20038;-75
2021/09/21 11:52:28;;;;;;;3.15;1.80;;;;;;;;;;5014788;28;20372;-80
2021/09/21 11:54:54;;;;;;;3.03;1.67;;;;;;;;;;5014600;28;20049;-77
2021/09/21 11:57:20;;;;;;;6.38;2.00;;;;;;;;;;5014685;28;20042;-76
2021/09/21 11:59:47;;;;;;;3.35;1.70;;;;;;;;;;5014750;28;20062;-76
2021/09/21 12:02:17;;;;;;;3.55;1.63;;;;;;;;;;5014563;28;20077;-77
2021/09/21 12:04:44;;;;;;;2.60;1.63;;;;;;;;;;5014948;28;20025;-74
2021/09/21 12:07:10;;;;;;;2.75;1.63;;;;;;;;;;5014778;28;20049;-79
2021/09/21 12:09:36;;;;;;;2.70;1.73;;;;;;;;;;4996910;28;20046;-76
2021/09/21 12:12:11;;;;;;;3.00;1.77;;;;;;;;;;5014613;28;20068;-77
2021/09/21 12:14:37;;;;;;;2.95;1.90;;;;;;;;;;5014536;28;20038;-74
2021/09/21 12:17:03;;;;;;;2.22;1.70;;;;;;;;;;5014452;28;20036;-77
2021/09/21 12:19:29;;;;;;;4.97;1.80;;;;;;;;;;5014624;28;20038;-76
2021/09/21 12:21:58;;;;;;;5.38;4.65;;;;;;;;;;4996941;28;20034;-75
2021/09/21 12:24:31;;;;;;;3.00;2.03;;;;;;;;;;5014230;28;20419;-76
2021/09/21 12:27:04;;;;;;;2.35;1.77;;;;;;;;;;5014366;28;20042;-74
2021/09/21 12:29:34;;;;;;;3.58;2.10;;;;;;;;;;5014467;28;20394;-78
2021/09/21 12:32:02;;;;;;;3.28;1.77;;;;;;;;;;5014417;28;20042;-77
2021/09/21 12:34:34;;;;;;;7.90;1.77;;;;;;;;;;5013485;28;20435;-73
2021/09/21 12:37:01;;;;;;;4.45;2.25;;;;;;;;;;5013874;28;20517;-75
2021/09/21 12:39:31;;;;;;;6.15;1.77;;;;;;;;;;5014417;28;20062;-75
2021/09/21 12:42:00;;;;;;;4.65;1.70;;;;;;;;;;5014031;28;20030;-74
2021/09/21 12:44:26;;;;;;;4.38;1.75;;;;;;;;;;5013847;28;20046;-75
2021/09/21 12:46:55;;;;;;;5.13;1.92;;;;;;;;;;5013529;28;20398;-75
2021/09/21 12:49:21;;;;;;;2.20;1.73;;;;;;;;;;5013898;28;20037;-74
2021/09/21 12:51:49;;;;;;;2.17;1.80;;;;;;;;;;5012992;28;20395;-76
2021/09/21 12:54:16;;;;;;;5.38;1.45;;;;;;;;;;5013127;28;20482;-75
2021/09/21 12:56:44;;;;;;;2.45;1.85;;;;;;;;;;5014026;28;20061;-75
2021/09/21 12:59:12;;;;;;;3.80;1.90;;;;;;;;;;5013997;28;20368;-77
2021/09/21 13:01:38;;;;;;;2.08;1.77;;;;;;;;;;5013860;28;20030;-76
2021/09/21 13:04:05;;;;;;;3.53;2.10;;;;;;;;;;5013499;28;20502;-78
2021/09/21 13:06:31;;;;;;;2.97;1.63;;;;;;;;;;5013649;28;20383;-79
2021/09/21 13:08:57;;;;;;;2.97;1.85;;;;;;;;;;5013394;28;20374;-76
2021/09/21 13:11:23;;;;;;;2.00;1.58;;;;;;;;;;5013079;28;20049;-78
2021/09/21 13:13:49;;;;;;;3.42;1.80;;;;;;;;;;5013172;28;20421;-79
2021/09/21 13:16:15;;;;;;;4.82;1.60;;;;;;;;;;5012423;28;20125;-78
2021/09/21 13:18:41;;;;;;;3.70;1.77;;;;;;;;;;5012304;28;20478;-75
2021/09/21 13:21:09;;;;;;;7.32;2.10;;;;;;;;;;5012507;28;20041;-78
2021/09/21 13:23:35;;;;;;;2.03;1.70;;;;;;;;;;5013141;28;20513;-76
2021/09/21 13:26:01;;;;;;;1.98;1.50;;;;;;;;;;5012645;28;20072;-75
2021/09/21 13:28:27;;;;;;;5.10;2.10;;;;;;;;;;5012364;28;20034;-76
2021/09/21 13:30:54;;;;;;;2.90;1.90;;;;;;;;;;5012112;28;20057;-77
2021/09/21 13:33:20;;;;;;;2.30;1.50;;;;;;;;;;5012517;28;20088;-76
2021/09/21 13:35:47;;;;;;;3.05;1.70;;;;;;;;;;5012225;28;20045;-76
2021/09/21 13:38:13;;;;;;;3.20;1.83;;;;;;;;;;5012352;28;20117;-77
2021/09/21 13:40:40;;;;;;;3.28;1.60;;;;;;;;;;5012552;28;20076;-76
2021/09/21 13:43:07;;;;;;;6.18;1.80;;;;;;;;;;5012314;28;20371;-76
2021/09/21 13:45:33;;;;;;;1.90;1.70;;;;;;;;;;5012516;28;20053;-76
2021/09/21 13:47:59;;;;;;;2.00;1.80;;;;;;;;;;5012469;28;20037;-75
2021/09/21 13:50:26;;;;;;;6.47;1.60;;;;;;;;;;5012382;28;20042;-75
2021/09/21 13:52:52;;;;;;;3.22;1.90;;;;;;;;;;5012685;28;20506;-75
2021/09/21 13:55:19;;;;;;;2.30;1.83;;;;;;;;;;5012412;28;20037;-75
2021/09/21 13:57:45;;;;;;;3.22;1.80;;;;;;;;;;5012280;28;20026;-76
2021/09/21 14:00:13;;;;;;;4.78;1.60;;;;;;;;;;5012362;28;20121;-75
2021/09/21 14:02:39;;;;;;;3.85;1.80;;;;;;;;;;5012379;28;20377;-77
2021/09/21 14:05:06;;;;;;;2.90;2.03;;;;;;;;;;5014537;28;20064;-75
2021/09/21 14:07:32;;;;;;;2.20;1.77;;;;;;;;;;5015655;28;20037;-76
2021/09/21 14:10:00;;;;;;;4.28;2.55;;;;;;;;;;4976140;28;1146241;-76
2021/09/21 14:12:26;;;;;;;3.85;1.95;;;;;;;;;;5016989;28;20070;-75
2021/09/21 14:14:52;;;;;;;2.72;1.60;;;;;;;;;;5017093;28;20387;-75
2021/09/21 14:17:18;;;;;;;2.22;1.77;;;;;;;;;;5017049;28;20088;-76
2021/09/21 14:19:44;;;;;;;2.38;2.03;;;;;;;;;;5016931;28;20045;-75
2021/09/21 14:22:11;;;;;;;2.97;1.75;;;;;;;;;;5016924;28;20034;-76
2021/09/21 14:24:37;;;;;;;2.35;1.65;;;;;;;;;;4999121;28;20026;-76
2021/09/21 14:27:03;;;;;;;2.33;1.73;;;;;;;;;;5016764;28;20041;-76
2021/09/21 14:29:30;;;;;;;2.38;1.67;;;;;;;;;;5016581;28;20037;-75
2021/09/21 14:31:56;;;;;;;3.67;1.67;;;;;;;;;;5016841;28;20410;-76
2021/09/21 14:34:23;;;;;;;5.03;2.03;;;;;;;;;;5016126;28;20034;-77
2021/09/21 14:36:49;;;;;;;4.07;1.65;;;;;;;;;;4998986;28;20513;-76
2021/09/21 14:39:15;;;;;;;5.22;2.20;;;;;;;;;;5016475;28;20120;-76
2021/09/21 14:41:42;;;;;;;2.38;1.77;;;;;;;;;;5016503;28;20037;-76
2021/09/21 14:44:08;;;;;;;4.00;1.80;;;;;;;;;;5015999;28;20041;-75
2021/09/21 14:46:38;;;;;;;2.05;1.73;;;;;;;;;;5016509;28;20050;-75
2021/09/21 14:49:04;;;;;;;3.95;1.45;;;;;;;;;;4998850;28;20034;-76
2021/09/21 14:51:30;;;;;;;1.73;1.52;;;;;;;;;;5016477;28;20422;-76
2021/09/21 14:53:57;;;;;;;2.30;1.75;;;;;;;;;;5016428;28;20099;-75
2021/09/21 14:56:23;;;;;;;2.58;1.88;;;;;;;;;;5016206;28;20038;-76